Главная страница
METAR-TAF:

METAR-TAF

Аэропорты :

Сиань, Китай

широта: 34-26N, долгота: 108-45E, высота над уровнем моря: 479 м

Текущие метеонаблюдения

Эта сводка был подготовлена 16 минут назад, в 10:00 UTC
Ветер 2 Узел переменных направлений
Температура 32°C
Влажность 67%
Давление 1001 hPa
Видимость 10 км и более
небольшая облачность на высоте 7000 фута

METAR: ZLXY 161000Z VRB01MPS 9999 FEW070 32/25 Q1001 NOSIG

Время: 18:16 (10:16 UTC)

Прогноз

Эта сводка был подготовлена 7 часа и 4 минут назад, в 03:12 UTC
Прогноз действительный с 16-го 06 UTC до 17-го 06 UTC
Ветер 6 Узел от восточно-северо-восточный
Видимость: 3000 м
дымка
временами
С 16-го 09 UTC до 16-го 15 UTC
Ветер 19 Узел от западно-северо-западный с порывами до 33 Узел
небольшая облачность на высоте 4000 фута, Кучево-дождевые.
Сплошная облачность на высоте 6000 фута
гроза, дождь

TAF: ZLXY 160312Z 1606/1706 06003MPS 3000 BR NSC TX34/1608Z TN26/1621Z TEMPO 1609/1615 30010G17MPS TSRA FEW040CB OVC060

Метеонаблюдения и прогнозы для более 4000 аэропортов (сводки METAR и TAF).

Имеющиеся станции представлены на карте желтыми и красными точками.

Чтобы увидеть название станции, наведите на нее мышь.

Затем щелкните, чтобы увидеть метеонаблюдения и метеопрогнозы.

Управление картой: чтобы увеличить масштаб, щелкните зеленые кнопки с черным крестиком; чтобы уменьшить масштаб, щелкните зеленую кнопку с тире; для просмотра соседних карт щелкайте зеленые стрелки.


METAR-TAF: